sensor_id;sensor_type;location;lat;lon;timestamp;temperature;humidity
13052;DHT22;6592;47.484;9.726;2023-01-24T00:01:58;-1.40;99.90
13052;DHT22;6592;47.484;9.726;2023-01-24T00:04:27;-1.40;99.90
13052;DHT22;6592;47.484;9.726;2023-01-24T00:06:55;-1.40;99.90
13052;DHT22;6592;47.484;9.726;2023-01-24T00:09:25;-1.40;99.90
13052;DHT22;6592;47.484;9.726;2023-01-24T00:11:53;-1.50;99.90
13052;DHT22;6592;47.484;9.726;2023-01-24T00:14:21;-1.50;99.90
13052;DHT22;6592;47.484;9.726;2023-01-24T00:16:49;-1.50;99.90
13052;DHT22;6592;47.484;9.726;2023-01-24T00:19:18;-1.40;99.90
13052;DHT22;6592;47.484;9.726;2023-01-24T00:21:46;-1.40;99.90
13052;DHT22;6592;47.484;9.726;2023-01-24T00:24:14;-1.40;99.90
13052;DHT22;6592;47.484;9.726;2023-01-24T00:26:44;-1.50;99.90
13052;DHT22;6592;47.484;9.726;2023-01-24T00:29:12;-1.40;99.90
13052;DHT22;6592;47.484;9.726;2023-01-24T00:31:40;-1.40;99.90
13052;DHT22;6592;47.484;9.726;2023-01-24T00:34:09;-1.40;99.90
13052;DHT22;6592;47.484;9.726;2023-01-24T00:36:37;-1.50;99.90
13052;DHT22;6592;47.484;9.726;2023-01-24T00:39:05;-1.50;99.90
13052;DHT22;6592;47.484;9.726;2023-01-24T00:41:33;-0.90;99.90
13052;DHT22;6592;47.484;9.726;2023-01-24T00:44:03;-1.50;99.90
13052;DHT22;6592;47.484;9.726;2023-01-24T00:46:31;-1.50;99.90
13052;DHT22;6592;47.484;9.726;2023-01-24T00:49:00;-0.80;99.90
13052;DHT22;6592;47.484;9.726;2023-01-24T00:51:28;-1.50;99.90
13052;DHT22;6592;47.484;9.726;2023-01-24T00:53:57;-1.60;99.90
13052;DHT22;6592;47.484;9.726;2023-01-24T00:56:25;-1.60;99.90
13052;DHT22;6592;47.484;9.726;2023-01-24T00:58:54;-1.60;99.90
13052;DHT22;6592;47.484;9.726;2023-01-24T01:01:23;-1.60;99.90
13052;DHT22;6592;47.484;9.726;2023-01-24T01:03:54;-1.70;99.90
13052;DHT22;6592;47.484;9.726;2023-01-24T01:06:24;-1.60;99.90
13052;DHT22;6592;47.484;9.726;2023-01-24T01:08:52;-1.60;99.90
13052;DHT22;6592;47.484;9.726;2023-01-24T01:11:21;-1.60;99.90
13052;DHT22;6592;47.484;9.726;2023-01-24T01:13:53;-1.30;99.90
13052;DHT22;6592;47.484;9.726;2023-01-24T01:16:24;-1.20;99.90
13052;DHT22;6592;47.484;9.726;2023-01-24T01:18:54;-1.70;99.90
13052;DHT22;6592;47.484;9.726;2023-01-24T01:21:22;-1.00;99.90
13052;DHT22;6592;47.484;9.726;2023-01-24T01:23:51;-1.80;99.90
13052;DHT22;6592;47.484;9.726;2023-01-24T01:26:20;-1.40;99.90
13052;DHT22;6592;47.484;9.726;2023-01-24T01:28:49;-1.90;99.90
13052;DHT22;6592;47.484;9.726;2023-01-24T01:31:17;-1.00;99.90
13052;DHT22;6592;47.484;9.726;2023-01-24T01:33:48;-1.90;99.90
13052;DHT22;6592;47.484;9.726;2023-01-24T01:36:16;-1.50;99.90
13052;DHT22;6592;47.484;9.726;2023-01-24T01:38:44;-2.10;99.90
13052;DHT22;6592;47.484;9.726;2023-01-24T01:41:13;-2.10;99.90
13052;DHT22;6592;47.484;9.726;2023-01-24T01:43:42;-2.20;99.90
13052;DHT22;6592;47.484;9.726;2023-01-24T01:46:25;-2.20;99.90
13052;DHT22;6592;47.484;9.726;2023-01-24T01:48:58;-2.30;99.90
13052;DHT22;6592;47.484;9.726;2023-01-24T01:51:32;-2.30;99.90
13052;DHT22;6592;47.484;9.726;2023-01-24T01:54:08;-2.30;99.90
13052;DHT22;6592;47.484;9.726;2023-01-24T01:56:40;-2.40;99.90
13052;DHT22;6592;47.484;9.726;2023-01-24T01:59:09;-2.40;99.90
13052;DHT22;6592;47.484;9.726;2023-01-24T02:01:40;-2.40;99.90
13052;DHT22;6592;47.484;9.726;2023-01-24T02:04:14;-2.40;99.90
13052;DHT22;6592;47.484;9.726;2023-01-24T02:06:50;-2.40;99.90
13052;DHT22;6592;47.484;9.726;2023-01-24T02:09:22;-2.40;99.90
13052;DHT22;6592;47.484;9.726;2023-01-24T02:11:53;-2.40;99.90
13052;DHT22;6592;47.484;9.726;2023-01-24T02:14:23;-2.50;99.90
13052;DHT22;6592;47.484;9.726;2023-01-24T02:17:09;-2.40;99.90
13052;DHT22;6592;47.484;9.726;2023-01-24T02:19:54;-2.40;99.90
13052;DHT22;6592;47.484;9.726;2023-01-24T02:22:29;-2.40;99.90
13052;DHT22;6592;47.484;9.726;2023-01-24T02:25:07;-2.50;99.90
13052;DHT22;6592;47.484;9.726;2023-01-24T02:27:39;-2.50;99.90
13052;DHT22;6592;47.484;9.726;2023-01-24T02:30:08;-2.50;99.90
13052;DHT22;6592;47.484;9.726;2023-01-24T02:32:37;-2.50;99.90
13052;DHT22;6592;47.484;9.726;2023-01-24T02:35:06;-2.00;99.90
13052;DHT22;6592;47.484;9.726;2023-01-24T02:37:35;-2.50;99.90
13052;DHT22;6592;47.484;9.726;2023-01-24T02:40:07;-2.50;99.90
13052;DHT22;6592;47.484;9.726;2023-01-24T02:42:39;-2.50;99.90
13052;DHT22;6592;47.484;9.726;2023-01-24T02:45:10;-2.50;99.90
13052;DHT22;6592;47.484;9.726;2023-01-24T02:47:44;-2.40;99.90
13052;DHT22;6592;47.484;9.726;2023-01-24T02:50:14;-2.40;99.90
13052;DHT22;6592;47.484;9.726;2023-01-24T02:52:42;-2.40;99.90
13052;DHT22;6592;47.484;9.726;2023-01-24T02:55:42;-2.40;99.90
13052;DHT22;6592;47.484;9.726;2023-01-24T02:58:26;-2.40;99.90
13052;DHT22;6592;47.484;9.726;2023-01-24T03:00:54;-2.40;99.90
13052;DHT22;6592;47.484;9.726;2023-01-24T03:03:22;-2.40;99.90
13052;DHT22;6592;47.484;9.726;2023-01-24T03:05:50;-2.50;99.90
13052;DHT22;6592;47.484;9.726;2023-01-24T03:08:25;-2.60;99.90
13052;DHT22;6592;47.484;9.726;2023-01-24T03:10:54;-2.50;99.90
13052;DHT22;6592;47.484;9.726;2023-01-24T03:13:24;-2.50;99.90
13052;DHT22;6592;47.484;9.726;2023-01-24T03:16:11;-2.40;99.90
13052;DHT22;6592;47.484;9.726;2023-01-24T03:18:58;-2.50;99.90
13052;DHT22;6592;47.484;9.726;2023-01-24T03:21:44;-2.50;99.90
13052;DHT22;6592;47.484;9.726;2023-01-24T03:24:30;-2.50;99.90
13052;DHT22;6592;47.484;9.726;2023-01-24T03:27:16;-2.50;99.90
13052;DHT22;6592;47.484;9.726;2023-01-24T03:30:04;-2.50;99.90
13052;DHT22;6592;47.484;9.726;2023-01-24T03:32:51;-2.50;99.90
13052;DHT22;6592;47.484;9.726;2023-01-24T03:35:37;-2.40;99.90
13052;DHT22;6592;47.484;9.726;2023-01-24T03:38:05;-2.40;99.90
13052;DHT22;6592;47.484;9.726;2023-01-24T03:40:51;-2.50;99.90
13052;DHT22;6592;47.484;9.726;2023-01-24T03:43:20;-2.60;99.90
13052;DHT22;6592;47.484;9.726;2023-01-24T03:45:52;-2.60;99.90
13052;DHT22;6592;47.484;9.726;2023-01-24T03:48:21;-2.60;99.90
13052;DHT22;6592;47.484;9.726;2023-01-24T03:50:53;-2.60;99.90
13052;DHT22;6592;47.484;9.726;2023-01-24T03:53:38;-2.60;99.90
13052;DHT22;6592;47.484;9.726;2023-01-24T03:56:07;-2.70;99.90
13052;DHT22;6592;47.484;9.726;2023-01-24T03:58:35;-2.60;99.90
13052;DHT22;6592;47.484;9.726;2023-01-24T04:01:05;-2.60;99.90
13052;DHT22;6592;47.484;9.726;2023-01-24T04:03:34;-2.60;99.90
13052;DHT22;6592;47.484;9.726;2023-01-24T04:06:02;-2.60;99.90
13052;DHT22;6592;47.484;9.726;2023-01-24T04:08:30;-2.60;99.90
13052;DHT22;6592;47.484;9.726;2023-01-24T04:10:59;-2.50;99.90
13052;DHT22;6592;47.484;9.726;2023-01-24T04:13:27;-2.50;99.90
13052;DHT22;6592;47.484;9.726;2023-01-24T04:15:55;-2.50;99.90
13052;DHT22;6592;47.484;9.726;2023-01-24T04:18:25;-2.40;99.90
13052;DHT22;6592;47.484;9.726;2023-01-24T04:20:53;-2.40;99.90
13052;DHT22;6592;47.484;9.726;2023-01-24T04:23:21;-2.30;99.90
13052;DHT22;6592;47.484;9.726;2023-01-24T04:25:50;-2.30;99.90
13052;DHT22;6592;47.484;9.726;2023-01-24T04:28:21;-2.30;99.90
13052;DHT22;6592;47.484;9.726;2023-01-24T04:30:56;-2.20;99.90
13052;DHT22;6592;47.484;9.726;2023-01-24T04:33:26;-2.10;99.90
13052;DHT22;6592;47.484;9.726;2023-01-24T04:35:59;-2.20;99.90
13052;DHT22;6592;47.484;9.726;2023-01-24T04:38:27;-2.20;99.90
13052;DHT22;6592;47.484;9.726;2023-01-24T04:40:59;-2.30;99.90
13052;DHT22;6592;47.484;9.726;2023-01-24T04:43:28;-2.30;99.90
13052;DHT22;6592;47.484;9.726;2023-01-24T04:45:57;-2.30;99.90
13052;DHT22;6592;47.484;9.726;2023-01-24T04:48:26;-2.40;99.90
13052;DHT22;6592;47.484;9.726;2023-01-24T04:50:58;-2.40;99.90
13052;DHT22;6592;47.484;9.726;2023-01-24T04:53:27;-2.40;99.90
13052;DHT22;6592;47.484;9.726;2023-01-24T04:55:59;-2.40;99.90
13052;DHT22;6592;47.484;9.726;2023-01-24T04:58:28;-2.40;99.90
13052;DHT22;6592;47.484;9.726;2023-01-24T05:00:57;-2.40;99.90
13052;DHT22;6592;47.484;9.726;2023-01-24T05:03:28;-2.50;99.90
13052;DHT22;6592;47.484;9.726;2023-01-24T05:05:56;-2.50;99.90
13052;DHT22;6592;47.484;9.726;2023-01-24T05:08:24;-2.50;99.90
13052;DHT22;6592;47.484;9.726;2023-01-24T05:10:53;-2.50;99.90
13052;DHT22;6592;47.484;9.726;2023-01-24T05:13:21;-2.50;99.90
13052;DHT22;6592;47.484;9.726;2023-01-24T05:15:50;-2.40;99.90
13052;DHT22;6592;47.484;9.726;2023-01-24T05:18:19;-2.40;99.90
13052;DHT22;6592;47.484;9.726;2023-01-24T05:20:49;-2.40;99.90
13052;DHT22;6592;47.484;9.726;2023-01-24T05:23:17;-2.40;99.90
13052;DHT22;6592;47.484;9.726;2023-01-24T05:25:45;-2.40;99.90
13052;DHT22;6592;47.484;9.726;2023-01-24T05:28:14;-2.40;99.90
13052;DHT22;6592;47.484;9.726;2023-01-24T05:30:42;-2.50;99.90
13052;DHT22;6592;47.484;9.726;2023-01-24T05:33:10;-2.50;99.90
13052;DHT22;6592;47.484;9.726;2023-01-24T05:35:38;-2.60;99.90
13052;DHT22;6592;47.484;9.726;2023-01-24T05:38:09;-2.60;99.90
13052;DHT22;6592;47.484;9.726;2023-01-24T05:40:37;-2.50;99.90
13052;DHT22;6592;47.484;9.726;2023-01-24T05:43:05;-2.70;99.90
13052;DHT22;6592;47.484;9.726;2023-01-24T05:45:34;-2.70;99.90
13052;DHT22;6592;47.484;9.726;2023-01-24T05:48:02;-2.70;99.90
13052;DHT22;6592;47.484;9.726;2023-01-24T05:50:31;-2.80;99.90
13052;DHT22;6592;47.484;9.726;2023-01-24T05:53:01;-2.70;99.90
13052;DHT22;6592;47.484;9.726;2023-01-24T05:55:31;-2.80;99.90
13052;DHT22;6592;47.484;9.726;2023-01-24T05:57:59;-3.00;99.90
13052;DHT22;6592;47.484;9.726;2023-01-24T06:00:27;-2.90;99.90
13052;DHT22;6592;47.484;9.726;2023-01-24T06:03:00;-3.00;99.90
13052;DHT22;6592;47.484;9.726;2023-01-24T06:05:29;-3.00;99.90
13052;DHT22;6592;47.484;9.726;2023-01-24T06:07:58;-3.00;99.90
13052;DHT22;6592;47.484;9.726;2023-01-24T06:10:26;-3.00;99.90
13052;DHT22;6592;47.484;9.726;2023-01-24T06:12:56;-3.00;99.90
13052;DHT22;6592;47.484;9.726;2023-01-24T06:15:27;-3.10;99.90
13052;DHT22;6592;47.484;9.726;2023-01-24T06:17:55;-3.20;99.90
13052;DHT22;6592;47.484;9.726;2023-01-24T06:20:24;-3.20;99.90
13052;DHT22;6592;47.484;9.726;2023-01-24T06:22:54;-3.30;99.90
13052;DHT22;6592;47.484;9.726;2023-01-24T06:25:24;-3.30;99.90
13052;DHT22;6592;47.484;9.726;2023-01-24T06:27:54;-3.30;99.90
13052;DHT22;6592;47.484;9.726;2023-01-24T06:30:23;-3.30;99.90
13052;DHT22;6592;47.484;9.726;2023-01-24T06:33:01;-3.30;99.90
13052;DHT22;6592;47.484;9.726;2023-01-24T06:35:36;-3.40;99.90
13052;DHT22;6592;47.484;9.726;2023-01-24T06:38:15;-3.30;99.90
13052;DHT22;6592;47.484;9.726;2023-01-24T06:40:45;-3.30;99.90
13052;DHT22;6592;47.484;9.726;2023-01-24T06:43:15;-3.30;99.90
13052;DHT22;6592;47.484;9.726;2023-01-24T06:45:43;-3.30;99.90
13052;DHT22;6592;47.484;9.726;2023-01-24T06:48:12;-3.20;99.90
13052;DHT22;6592;47.484;9.726;2023-01-24T06:50:40;-3.10;99.90
13052;DHT22;6592;47.484;9.726;2023-01-24T06:53:09;-3.10;99.90
13052;DHT22;6592;47.484;9.726;2023-01-24T06:55:37;-3.10;99.90
13052;DHT22;6592;47.484;9.726;2023-01-24T06:58:05;-2.60;99.90
13052;DHT22;6592;47.484;9.726;2023-01-24T07:00:35;-2.90;99.90
13052;DHT22;6592;47.484;9.726;2023-01-24T07:03:05;-2.90;99.90
13052;DHT22;6592;47.484;9.726;2023-01-24T07:05:34;-2.90;99.90
13052;DHT22;6592;47.484;9.726;2023-01-24T07:08:04;-2.90;99.90
13052;DHT22;6592;47.484;9.726;2023-01-24T07:10:33;-2.90;99.90
13052;DHT22;6592;47.484;9.726;2023-01-24T07:13:02;-3.00;99.90
13052;DHT22;6592;47.484;9.726;2023-01-24T07:15:30;-3.00;99.90
13052;DHT22;6592;47.484;9.726;2023-01-24T07:18:06;-3.00;99.90
13052;DHT22;6592;47.484;9.726;2023-01-24T07:20:35;-3.10;99.90
13052;DHT22;6592;47.484;9.726;2023-01-24T07:23:04;-3.10;99.90
13052;DHT22;6592;47.484;9.726;2023-01-24T07:25:32;-3.10;99.90
13052;DHT22;6592;47.484;9.726;2023-01-24T07:28:04;-3.00;99.90
13052;DHT22;6592;47.484;9.726;2023-01-24T07:30:33;-2.90;99.90
13052;DHT22;6592;47.484;9.726;2023-01-24T07:33:01;-2.80;99.90
13052;DHT22;6592;47.484;9.726;2023-01-24T07:35:30;-2.80;99.90
13052;DHT22;6592;47.484;9.726;2023-01-24T07:37:59;-2.60;99.90
13052;DHT22;6592;47.484;9.726;2023-01-24T07:40:27;-2.60;99.90
13052;DHT22;6592;47.484;9.726;2023-01-24T07:42:55;-2.60;99.90
13052;DHT22;6592;47.484;9.726;2023-01-24T07:45:26;-2.50;99.90
13052;DHT22;6592;47.484;9.726;2023-01-24T07:47:55;-2.20;99.90
13052;DHT22;6592;47.484;9.726;2023-01-24T07:50:24;-1.70;99.90
13052;DHT22;6592;47.484;9.726;2023-01-24T07:52:54;-1.00;99.90
13052;DHT22;6592;47.484;9.726;2023-01-24T07:55:23;-0.60;99.90
13052;DHT22;6592;47.484;9.726;2023-01-24T07:57:51;-0.30;99.90
13052;DHT22;6592;47.484;9.726;2023-01-24T08:00:20;0.30;99.90
13052;DHT22;6592;47.484;9.726;2023-01-24T08:02:49;0.70;99.90
13052;DHT22;6592;47.484;9.726;2023-01-24T08:05:17;0.80;99.90
13052;DHT22;6592;47.484;9.726;2023-01-24T08:07:45;1.20;99.90
13052;DHT22;6592;47.484;9.726;2023-01-24T08:10:15;1.70;99.90
13052;DHT22;6592;47.484;9.726;2023-01-24T08:12:43;2.30;99.90
13052;DHT22;6592;47.484;9.726;2023-01-24T08:15:12;2.60;99.90
13052;DHT22;6592;47.484;9.726;2023-01-24T08:17:40;2.30;99.90
13052;DHT22;6592;47.484;9.726;2023-01-24T08:20:09;2.40;99.90
13052;DHT22;6592;47.484;9.726;2023-01-24T08:22:38;2.30;99.90
13052;DHT22;6592;47.484;9.726;2023-01-24T08:25:25;2.20;99.90
13052;DHT22;6592;47.484;9.726;2023-01-24T08:27:53;3.00;99.90
13052;DHT22;6592;47.484;9.726;2023-01-24T08:30:22;3.20;99.90
13052;DHT22;6592;47.484;9.726;2023-01-24T08:32:59;3.50;99.90
13052;DHT22;6592;47.484;9.726;2023-01-24T08:35:27;4.00;99.90
13052;DHT22;6592;47.484;9.726;2023-01-24T08:37:55;4.60;99.90
13052;DHT22;6592;47.484;9.726;2023-01-24T08:40:26;4.80;99.90
13052;DHT22;6592;47.484;9.726;2023-01-24T08:43:03;4.90;99.90
13052;DHT22;6592;47.484;9.726;2023-01-24T08:45:32;4.70;99.90
13052;DHT22;6592;47.484;9.726;2023-01-24T08:48:00;4.10;99.90
13052;DHT22;6592;47.484;9.726;2023-01-24T08:50:28;4.50;99.90
13052;DHT22;6592;47.484;9.726;2023-01-24T08:52:57;4.40;99.90
13052;DHT22;6592;47.484;9.726;2023-01-24T08:55:26;3.80;99.90
13052;DHT22;6592;47.484;9.726;2023-01-24T08:57:59;3.50;99.90
13052;DHT22;6592;47.484;9.726;2023-01-24T09:00:27;3.90;99.90
13052;DHT22;6592;47.484;9.726;2023-01-24T09:02:56;4.20;99.90
13052;DHT22;6592;47.484;9.726;2023-01-24T09:05:27;5.00;99.90
13052;DHT22;6592;47.484;9.726;2023-01-24T09:07:56;5.80;99.90
13052;DHT22;6592;47.484;9.726;2023-01-24T09:10:26;6.70;99.90
13052;DHT22;6592;47.484;9.726;2023-01-24T09:12:54;7.20;99.90
13052;DHT22;6592;47.484;9.726;2023-01-24T09:15:22;8.50;99.90
13052;DHT22;6592;47.484;9.726;2023-01-24T09:17:51;9.70;99.90
13052;DHT22;6592;47.484;9.726;2023-01-24T09:20:19;10.40;99.90
13052;DHT22;6592;47.484;9.726;2023-01-24T09:22:48;10.20;99.90
13052;DHT22;6592;47.484;9.726;2023-01-24T09:25:16;10.40;99.90
13052;DHT22;6592;47.484;9.726;2023-01-24T09:27:52;10.20;99.90
13052;DHT22;6592;47.484;9.726;2023-01-24T09:30:21;10.20;99.90
13052;DHT22;6592;47.484;9.726;2023-01-24T09:32:50;10.80;99.90
13052;DHT22;6592;47.484;9.726;2023-01-24T09:35:18;10.70;99.90
13052;DHT22;6592;47.484;9.726;2023-01-24T09:37:46;10.20;99.90
13052;DHT22;6592;47.484;9.726;2023-01-24T09:40:21;9.10;99.90
13052;DHT22;6592;47.484;9.726;2023-01-24T09:42:59;8.40;99.90
13052;DHT22;6592;47.484;9.726;2023-01-24T09:45:31;8.10;99.90
13052;DHT22;6592;47.484;9.726;2023-01-24T09:48:03;8.40;99.90
13052;DHT22;6592;47.484;9.726;2023-01-24T09:50:38;9.30;99.90
13052;DHT22;6592;47.484;9.726;2023-01-24T09:53:15;9.90;99.90
13052;DHT22;6592;47.484;9.726;2023-01-24T09:55:46;11.00;99.90
13052;DHT22;6592;47.484;9.726;2023-01-24T09:58:27;12.10;98.20
13052;DHT22;6592;47.484;9.726;2023-01-24T10:00:59;12.00;95.80
13052;DHT22;6592;47.484;9.726;2023-01-24T10:03:28;11.70;96.60
13052;DHT22;6592;47.484;9.726;2023-01-24T10:06:00;12.70;97.20
13052;DHT22;6592;47.484;9.726;2023-01-24T10:08:37;14.50;93.10
13052;DHT22;6592;47.484;9.726;2023-01-24T10:11:18;15.50;85.90
13052;DHT22;6592;47.484;9.726;2023-01-24T10:14:08;15.20;82.90
13052;DHT22;6592;47.484;9.726;2023-01-24T10:19:53;14.70;80.60
13052;DHT22;6592;47.484;9.726;2023-01-24T10:22:36;14.60;80.00
13052;DHT22;6592;47.484;9.726;2023-01-24T10:25:14;13.70;82.60
13052;DHT22;6592;47.484;9.726;2023-01-24T10:27:46;13.30;84.60
13052;DHT22;6592;47.484;9.726;2023-01-24T10:30:18;13.00;84.10
13052;DHT22;6592;47.484;9.726;2023-01-24T10:32:52;12.40;85.90
13052;DHT22;6592;47.484;9.726;2023-01-24T10:35:25;12.30;88.40
13052;DHT22;6592;47.484;9.726;2023-01-24T10:37:59;12.00;88.40
13052;DHT22;6592;47.484;9.726;2023-01-24T10:40:28;11.80;88.10
13052;DHT22;6592;47.484;9.726;2023-01-24T10:42:56;10.80;88.30
13052;DHT22;6592;47.484;9.726;2023-01-24T10:45:45;10.20;90.60
13052;DHT22;6592;47.484;9.726;2023-01-24T10:48:24;9.50;91.70
13052;DHT22;6592;47.484;9.726;2023-01-24T10:51:10;9.00;92.80
13052;DHT22;6592;47.484;9.726;2023-01-24T10:53:39;8.30;93.90
13052;DHT22;6592;47.484;9.726;2023-01-24T10:56:07;7.80;94.90
13052;DHT22;6592;47.484;9.726;2023-01-24T10:58:40;7.40;95.90
13052;DHT22;6592;47.484;9.726;2023-01-24T11:01:18;7.60;96.70
13052;DHT22;6592;47.484;9.726;2023-01-24T11:03:48;8.00;96.70
13052;DHT22;6592;47.484;9.726;2023-01-24T11:06:29;8.30;96.60
13052;DHT22;6592;47.484;9.726;2023-01-24T11:09:04;8.20;96.70
13052;DHT22;6592;47.484;9.726;2023-01-24T11:11:33;8.20;97.10
13052;DHT22;6592;47.484;9.726;2023-01-24T11:14:01;8.60;97.00
13052;DHT22;6592;47.484;9.726;2023-01-24T11:16:33;8.30;96.50
13052;DHT22;6592;47.484;9.726;2023-01-24T11:19:02;8.00;97.30
13052;DHT22;6592;47.484;9.726;2023-01-24T11:21:33;8.40;97.70
13052;DHT22;6592;47.484;9.726;2023-01-24T11:24:17;8.80;96.80
13052;DHT22;6592;47.484;9.726;2023-01-24T11:26:56;9.30;96.50
13052;DHT22;6592;47.484;9.726;2023-01-24T11:29:24;10.10;95.00
13052;DHT22;6592;47.484;9.726;2023-01-24T11:31:56;10.30;93.60
13052;DHT22;6592;47.484;9.726;2023-01-24T11:34:35;10.00;94.80
13052;DHT22;6592;47.484;9.726;2023-01-24T11:37:29;10.30;93.90
13052;DHT22;6592;47.484;9.726;2023-01-24T11:40:12;9.90;94.10
13052;DHT22;6592;47.484;9.726;2023-01-24T11:42:48;10.10;94.70
13052;DHT22;6592;47.484;9.726;2023-01-24T11:45:26;10.60;94.00
13052;DHT22;6592;47.484;9.726;2023-01-24T11:48:05;10.90;94.10
13052;DHT22;6592;47.484;9.726;2023-01-24T11:50:41;11.70;92.30
13052;DHT22;6592;47.484;9.726;2023-01-24T11:53:25;12.20;92.30
13052;DHT22;6592;47.484;9.726;2023-01-24T11:56:08;12.40;92.00
13052;DHT22;6592;47.484;9.726;2023-01-24T11:58:46;12.20;92.20
13052;DHT22;6592;47.484;9.726;2023-01-24T12:01:26;11.70;91.20
13052;DHT22;6592;47.484;9.726;2023-01-24T12:04:17;11.80;92.00
13052;DHT22;6592;47.484;9.726;2023-01-24T12:06:53;12.20;90.30
13052;DHT22;6592;47.484;9.726;2023-01-24T12:09:25;12.80;91.50
13052;DHT22;6592;47.484;9.726;2023-01-24T12:12:02;13.80;88.80
13052;DHT22;6592;47.484;9.726;2023-01-24T12:15:09;14.50;84.90
13052;DHT22;6592;47.484;9.726;2023-01-24T12:18:01;15.50;80.90
13052;DHT22;6592;47.484;9.726;2023-01-24T12:20:56;15.60;80.30
13052;DHT22;6592;47.484;9.726;2023-01-24T12:23:32;16.00;78.00
13052;DHT22;6592;47.484;9.726;2023-01-24T12:26:07;15.70;81.40
13052;DHT22;6592;47.484;9.726;2023-01-24T12:28:41;15.40;82.00
13052;DHT22;6592;47.484;9.726;2023-01-24T12:31:17;15.20;81.00
13052;DHT22;6592;47.484;9.726;2023-01-24T12:33:52;15.00;80.20
13052;DHT22;6592;47.484;9.726;2023-01-24T12:36:35;15.50;85.20
13052;DHT22;6592;47.484;9.726;2023-01-24T12:39:12;16.30;79.90
13052;DHT22;6592;47.484;9.726;2023-01-24T12:41:44;16.90;81.40
13052;DHT22;6592;47.484;9.726;2023-01-24T12:44:24;17.60;77.40
13052;DHT22;6592;47.484;9.726;2023-01-24T12:47:19;18.20;76.20
13052;DHT22;6592;47.484;9.726;2023-01-24T12:50:00;18.60;73.90
13052;DHT22;6592;47.484;9.726;2023-01-24T12:52:33;19.50;70.30
13052;DHT22;6592;47.484;9.726;2023-01-24T12:55:09;19.60;64.40
13052;DHT22;6592;47.484;9.726;2023-01-24T12:57:43;19.40;64.50
13052;DHT22;6592;47.484;9.726;2023-01-24T13:00:16;18.90;68.00
13052;DHT22;6592;47.484;9.726;2023-01-24T13:03:09;18.40;67.10
13052;DHT22;6592;47.484;9.726;2023-01-24T13:05:47;18.60;69.90
13052;DHT22;6592;47.484;9.726;2023-01-24T13:08:32;19.30;66.90
13052;DHT22;6592;47.484;9.726;2023-01-24T13:11:16;19.40;62.70
13052;DHT22;6592;47.484;9.726;2023-01-24T13:13:54;19.40;67.20
13052;DHT22;6592;47.484;9.726;2023-01-24T13:16:45;19.10;66.40
13052;DHT22;6592;47.484;9.726;2023-01-24T13:19:22;19.00;62.30
13052;DHT22;6592;47.484;9.726;2023-01-24T13:21:58;19.10;64.10
13052;DHT22;6592;47.484;9.726;2023-01-24T13:24:47;19.00;62.20
13052;DHT22;6592;47.484;9.726;2023-01-24T13:27:28;18.70;62.20
13052;DHT22;6592;47.484;9.726;2023-01-24T13:30:25;19.00;66.60
13052;DHT22;6592;47.484;9.726;2023-01-24T13:32:57;19.50;60.20
13052;DHT22;6592;47.484;9.726;2023-01-24T13:35:28;19.40;60.90
13052;DHT22;6592;47.484;9.726;2023-01-24T13:38:01;19.50;61.60
13052;DHT22;6592;47.484;9.726;2023-01-24T13:40:32;19.20;60.20
13052;DHT22;6592;47.484;9.726;2023-01-24T13:43:03;19.40;62.70
13052;DHT22;6592;47.484;9.726;2023-01-24T13:48:43;19.20;62.50
13052;DHT22;6592;47.484;9.726;2023-01-24T13:51:45;19.30;66.90
13052;DHT22;6592;47.484;9.726;2023-01-24T13:54:35;19.30;69.20
13052;DHT22;6592;47.484;9.726;2023-01-24T13:57:25;19.70;71.60
13052;DHT22;6592;47.484;9.726;2023-01-24T14:03:03;20.50;74.90
13052;DHT22;6592;47.484;9.726;2023-01-24T14:05:45;20.20;75.00
13052;DHT22;6592;47.484;9.726;2023-01-24T14:14:28;19.90;78.60
13052;DHT22;6592;47.484;9.726;2023-01-24T14:19:56;19.60;59.00
13052;DHT22;6592;47.484;9.726;2023-01-24T14:22:37;19.30;59.60
13052;DHT22;6592;47.484;9.726;2023-01-24T14:25:35;19.40;60.30
13052;DHT22;6592;47.484;9.726;2023-01-24T14:28:21;19.50;59.80
13052;DHT22;6592;47.484;9.726;2023-01-24T14:30:55;19.60;57.80
13052;DHT22;6592;47.484;9.726;2023-01-24T14:33:32;19.30;59.30
13052;DHT22;6592;47.484;9.726;2023-01-24T14:36:08;19.90;58.90
13052;DHT22;6592;47.484;9.726;2023-01-24T14:38:39;19.70;58.30
13052;DHT22;6592;47.484;9.726;2023-01-24T14:41:19;19.00;58.80
13052;DHT22;6592;47.484;9.726;2023-01-24T14:43:48;18.40;59.00
13052;DHT22;6592;47.484;9.726;2023-01-24T14:46:21;18.20;60.20
13052;DHT22;6592;47.484;9.726;2023-01-24T14:48:50;17.40;60.10
13052;DHT22;6592;47.484;9.726;2023-01-24T14:51:22;16.70;62.00
13052;DHT22;6592;47.484;9.726;2023-01-24T14:53:53;15.90;63.50
13052;DHT22;6592;47.484;9.726;2023-01-24T14:56:21;15.00;64.70
13052;DHT22;6592;47.484;9.726;2023-01-24T14:58:50;14.20;66.60
13052;DHT22;6592;47.484;9.726;2023-01-24T15:01:27;13.20;68.70
13052;DHT22;6592;47.484;9.726;2023-01-24T15:03:58;12.60;70.30
13052;DHT22;6592;47.484;9.726;2023-01-24T15:06:28;12.00;71.90
13052;DHT22;6592;47.484;9.726;2023-01-24T15:08:57;11.20;74.80
13052;DHT22;6592;47.484;9.726;2023-01-24T15:11:28;10.70;75.30
13052;DHT22;6592;47.484;9.726;2023-01-24T15:13:59;10.20;77.50
13052;DHT22;6592;47.484;9.726;2023-01-24T15:16:34;9.70;78.70
13052;DHT22;6592;47.484;9.726;2023-01-24T15:19:05;9.40;80.30
13052;DHT22;6592;47.484;9.726;2023-01-24T15:21:37;9.00;81.70
13052;DHT22;6592;47.484;9.726;2023-01-24T15:24:19;8.50;84.10
13052;DHT22;6592;47.484;9.726;2023-01-24T15:26:48;8.30;85.10
13052;DHT22;6592;47.484;9.726;2023-01-24T15:29:39;7.90;87.40
13052;DHT22;6592;47.484;9.726;2023-01-24T15:32:26;7.40;89.80
13052;DHT22;6592;47.484;9.726;2023-01-24T15:38:14;6.50;93.50
13052;DHT22;6592;47.484;9.726;2023-01-24T15:40:52;5.90;94.30
13052;DHT22;6592;47.484;9.726;2023-01-24T15:43:27;5.50;96.30
13052;DHT22;6592;47.484;9.726;2023-01-24T15:46:22;5.30;97.20
13052;DHT22;6592;47.484;9.726;2023-01-24T15:49:30;5.20;99.90
13052;DHT22;6592;47.484;9.726;2023-01-24T15:52:15;5.10;99.90
13052;DHT22;6592;47.484;9.726;2023-01-24T15:54:44;4.90;99.90
13052;DHT22;6592;47.484;9.726;2023-01-24T15:57:17;4.70;99.90
13052;DHT22;6592;47.484;9.726;2023-01-24T15:59:48;4.60;99.90
13052;DHT22;6592;47.484;9.726;2023-01-24T16:02:17;4.20;99.90
13052;DHT22;6592;47.484;9.726;2023-01-24T16:04:47;3.90;99.90
13052;DHT22;6592;47.484;9.726;2023-01-24T16:07:16;4.00;99.90
13052;DHT22;6592;47.484;9.726;2023-01-24T16:09:46;4.00;99.90
13052;DHT22;6592;47.484;9.726;2023-01-24T16:12:17;3.90;99.90
13052;DHT22;6592;47.484;9.726;2023-01-24T16:14:48;3.80;99.90
13052;DHT22;6592;47.484;9.726;2023-01-24T16:17:33;3.60;99.90
13052;DHT22;6592;47.484;9.726;2023-01-24T16:20:15;4.60;99.90
13052;DHT22;6592;47.484;9.726;2023-01-24T16:22:44;3.40;99.90
13052;DHT22;6592;47.484;9.726;2023-01-24T16:25:13;3.30;99.90
13052;DHT22;6592;47.484;9.726;2023-01-24T16:27:42;3.10;99.90
13052;DHT22;6592;47.484;9.726;2023-01-24T16:30:14;3.10;99.90
13052;DHT22;6592;47.484;9.726;2023-01-24T16:32:44;3.00;99.90
13052;DHT22;6592;47.484;9.726;2023-01-24T16:35:14;2.90;99.90
13052;DHT22;6592;47.484;9.726;2023-01-24T16:37:42;2.80;99.90
13052;DHT22;6592;47.484;9.726;2023-01-24T16:40:15;2.70;99.90
13052;DHT22;6592;47.484;9.726;2023-01-24T16:42:45;2.70;99.90
13052;DHT22;6592;47.484;9.726;2023-01-24T16:45:15;2.60;99.90
13052;DHT22;6592;47.484;9.726;2023-01-24T16:47:44;2.50;99.90
13052;DHT22;6592;47.484;9.726;2023-01-24T16:50:14;2.40;99.90